createdAt,value
2023-03-26T00:01:00.481Z,99832.78
2023-03-26T00:03:40.860Z,99836.56
2023-03-26T00:06:14.256Z,99824.25
2023-03-26T00:08:51.312Z,99840.66
2023-03-26T00:11:23.627Z,99831.78
2023-03-26T00:13:51.608Z,99823.72
2023-03-26T00:16:26.975Z,99826.41
2023-03-26T00:18:57.698Z,99819.47
2023-03-26T00:21:26.792Z,99826.72
2023-03-26T00:24:21.001Z,99823.22
2023-03-26T00:26:53.709Z,99813.59
2023-03-26T00:29:32.080Z,99813.59
2023-03-26T00:32:05.085Z,99812.50
2023-03-26T00:34:34.934Z,99816.28
2023-03-26T00:37:05.642Z,99820.03
2023-03-26T00:39:33.023Z,99821.13
2023-03-26T00:42:04.299Z,99820.31
2023-03-26T00:44:38.169Z,99815.25
2023-03-26T00:47:05.172Z,99816.06
2023-03-26T00:49:41.754Z,99812.59
2023-03-26T00:52:12.329Z,99807.44
2023-03-26T00:54:48.204Z,99814.44
2023-03-26T00:57:29.006Z,99813.62
2023-03-26T01:00:06.898Z,99813.62
2023-03-26T01:02:34.016Z,99810.94
2023-03-26T01:05:05.966Z,99805.56
2023-03-26T01:07:42.595Z,99805.06
2023-03-26T01:10:13.018Z,99807.22
2023-03-26T01:12:40.897Z,99795.69
2023-03-26T01:15:13.766Z,99797.28
2023-03-26T01:17:44.618Z,99791.12
2023-03-26T01:20:22.465Z,99791.94
2023-03-26T01:22:59.343Z,99792.22
2023-03-26T01:25:40.476Z,99784.19
2023-03-26T01:28:15.933Z,99785.78
2023-03-26T01:31:07.097Z,99777.22
2023-03-26T01:33:47.247Z,99779.13
2023-03-26T01:36:45.231Z,99769.44
2023-03-26T01:39:40.847Z,99774.03
2023-03-26T01:42:19.193Z,99768.66
2023-03-26T01:45:01.876Z,99760.13
2023-03-26T01:47:30.586Z,99766.56
2023-03-26T01:50:07.263Z,99767.06
2023-03-26T01:52:39.836Z,99753.16
2023-03-26T01:55:16.778Z,99749.97
2023-03-26T01:58:17.304Z,99744.91
2023-03-26T02:00:59.234Z,99737.62
2023-03-26T02:03:31.677Z,99741.37
2023-03-26T02:06:14.542Z,99732.28
2023-03-26T02:09:06.662Z,99731.75
2023-03-26T02:11:40.683Z,99731.47
2023-03-26T02:14:12.853Z,99733.66
2023-03-26T02:16:43.380Z,99731.25
2023-03-26T02:19:10.261Z,99729.66
2023-03-26T02:21:43.635Z,99728.84
2023-03-26T02:24:20.547Z,99725.91
2023-03-26T02:26:56.361Z,99714.66
2023-03-26T02:29:26.793Z,99717.34
2023-03-26T02:31:59.857Z,99702.34
2023-03-26T02:34:29.238Z,99714.16
2023-03-26T02:37:02.858Z,99702.81
2023-03-26T02:39:32.552Z,99710.38
2023-03-26T02:41:59.598Z,99714.16
2023-03-26T02:44:33.222Z,99722.19
2023-03-26T02:47:02.794Z,99728.63
2023-03-26T02:49:34.190Z,99717.91
2023-03-26T02:52:02.144Z,99721.69
2023-03-26T02:54:34.826Z,99721.69
2023-03-26T02:57:07.300Z,99721.69
2023-03-26T02:59:40.977Z,99722.47
2023-03-26T03:02:08.545Z,99730.53
2023-03-26T03:04:35.872Z,99727.63
2023-03-26T03:07:05.750Z,99731.59
2023-03-26T03:09:39.428Z,99716.88
2023-03-26T03:12:09.031Z,99729.81
2023-03-26T03:14:48.999Z,99727.63
2023-03-26T03:17:16.690Z,99724.44
2023-03-26T03:19:45.201Z,99726.03
2023-03-26T03:22:18.657Z,99729.50
2023-03-26T03:24:54.536Z,99726.81
2023-03-26T03:27:24.966Z,99736.19
2023-03-26T03:29:55.265Z,99728.94
2023-03-26T03:32:25.786Z,99739.97
2023-03-26T03:34:58.826Z,99735.88
2023-03-26T03:37:25.943Z,99736.19
2023-03-26T03:40:01.833Z,99731.91
2023-03-26T03:42:32.100Z,99729.22
2023-03-26T03:45:05.011Z,99728.72
2023-03-26T03:47:40.602Z,99726.81
2023-03-26T03:50:08.853Z,99719.87
2023-03-26T03:52:39.271Z,99726.81
2023-03-26T03:55:06.589Z,99732.97
2023-03-26T03:57:39.455Z,99737.53
2023-03-26T04:00:15.993Z,99745.88
2023-03-26T04:02:46.342Z,99740.53
2023-03-26T04:05:20.717Z,99740.53
2023-03-26T04:07:48.505Z,99742.69
2023-03-26T04:10:19.365Z,99745.88
2023-03-26T04:12:49.156Z,99741.87
2023-03-26T04:15:21.757Z,99742.69
2023-03-26T04:17:49.121Z,99730.38
2023-03-26T04:20:22.669Z,99736.53
2023-03-26T04:22:55.533Z,99725.56
2023-03-26T04:25:22.706Z,99725.56
2023-03-26T04:27:52.949Z,99734.41
2023-03-26T04:30:25.980Z,99741.66
2023-03-26T04:32:55.307Z,99738.19
2023-03-26T04:35:25.498Z,99738.50
2023-03-26T04:37:59.079Z,99724.00
2023-03-26T04:40:30.199Z,99733.13
2023-03-26T04:43:00.449Z,99742.25
2023-03-26T04:45:35.823Z,99743.84
2023-03-26T04:48:06.661Z,99746.81
2023-03-26T04:50:36.705Z,99749.78
2023-03-26T04:53:03.790Z,99744.97
2023-03-26T04:55:46.037Z,99742.84
2023-03-26T04:58:17.094Z,99728.09
2023-03-26T05:00:46.453Z,99728.91
2023-03-26T05:03:17.001Z,99723.53
2023-03-26T05:05:44.184Z,99721.16
2023-03-26T05:08:15.342Z,99720.38
2023-03-26T05:10:45.511Z,99724.94
2023-03-26T05:13:12.939Z,99728.41
2023-03-26T05:15:40.784Z,99733.75
2023-03-26T05:18:07.998Z,99723.31
2023-03-26T05:20:38.702Z,99741.00
2023-03-26T05:23:14.164Z,99736.72
2023-03-26T05:25:44.166Z,99734.81
2023-03-26T05:28:13.621Z,99733.75
2023-03-26T05:30:43.217Z,99734.25
2023-03-26T05:33:17.294Z,99731.31
2023-03-26T05:35:48.914Z,99740.94
2023-03-26T05:38:25.080Z,99729.91
2023-03-26T05:40:52.594Z,99734.22
2023-03-26T05:43:19.845Z,99741.16
2023-03-26T05:45:50.977Z,99741.66
2023-03-26T05:48:21.492Z,99734.72
2023-03-26T05:50:59.795Z,99740.88
2023-03-26T05:53:28.372Z,99735.25
2023-03-26T05:56:01.419Z,99736.81
2023-03-26T05:58:35.845Z,99741.09
2023-03-26T06:01:07.780Z,99740.00
2023-03-26T06:03:38.984Z,99737.31
2023-03-26T06:06:14.716Z,99737.31
2023-03-26T06:09:02.208Z,99735.16
2023-03-26T06:11:34.012Z,99736.75
2023-03-26T06:14:07.977Z,99734.28
2023-03-26T06:16:41.259Z,99731.03
2023-03-26T06:19:08.465Z,99735.00
2023-03-26T06:21:36.353Z,99737.13
2023-03-26T06:24:09.151Z,99733.06
2023-03-26T06:26:36.376Z,99731.72
2023-03-26T06:29:03.920Z,99732.72
2023-03-26T06:31:34.053Z,99737.47
2023-03-26T06:34:12.105Z,99732.63
2023-03-26T06:36:47.359Z,99730.44
2023-03-26T06:39:20.788Z,99728.81
2023-03-26T06:41:55.810Z,99734.69
2023-03-26T06:44:28.541Z,99725.28
2023-03-26T06:46:58.578Z,99723.88
2023-03-26T06:49:28.738Z,99725.47
2023-03-26T06:52:00.690Z,99723.31
2023-03-26T06:54:30.632Z,99730.25
2023-03-26T06:57:03.300Z,99731.06
2023-03-26T06:59:33.428Z,99729.19
2023-03-26T07:02:03.693Z,99732.94
2023-03-26T07:04:34.056Z,99737.25
2023-03-26T07:07:07.433Z,99737.25
2023-03-26T07:09:37.827Z,99731.06
2023-03-26T07:12:05.609Z,99733.47
2023-03-26T07:14:38.938Z,99729.19
2023-03-26T07:17:09.064Z,99721.13
2023-03-26T07:19:37.827Z,99730.78
2023-03-26T07:22:17.032Z,99721.94
2023-03-26T07:24:46.660Z,99720.03
2023-03-26T07:27:29.103Z,99717.84
2023-03-26T07:30:09.488Z,99716.78
2023-03-26T07:32:59.889Z,99712.22
2023-03-26T07:35:41.771Z,99715.38
2023-03-26T07:38:24.070Z,99711.59
2023-03-26T07:41:17.811Z,99711.31
2023-03-26T07:44:15.919Z,99717.19
2023-03-26T07:46:43.171Z,99710.22
2023-03-26T07:49:23.038Z,99698.41
2023-03-26T07:51:56.369Z,99708.66
2023-03-26T07:54:35.402Z,99697.91
2023-03-26T07:57:15.929Z,99701.69
2023-03-26T07:59:58.677Z,99701.16
2023-03-26T08:02:37.796Z,99694.72
2023-03-26T08:05:25.604Z,99700.06
2023-03-26T08:08:13.704Z,99691.53
2023-03-26T08:11:06.887Z,99682.38
2023-03-26T08:13:54.372Z,99680.22
2023-03-26T08:16:40.708Z,99682.91
2023-03-26T08:19:30.286Z,99683.41
2023-03-26T08:22:13.846Z,99685.81
2023-03-26T08:24:55.601Z,99692.75
2023-03-26T08:27:28.732Z,99683.91
2023-03-26T08:30:17.234Z,99680.63
2023-03-26T08:32:55.117Z,99666.13
2023-03-26T08:35:29.321Z,99668.50
2023-03-26T08:38:00.086Z,99663.94
2023-03-26T08:40:56.925Z,99654.78
2023-03-26T08:43:48.662Z,99656.97
2023-03-26T08:46:24.851Z,99655.88
2023-03-26T08:49:20.597Z,99651.63
2023-03-26T08:52:27.392Z,99646.25
2023-03-26T08:55:13.264Z,99635.00
2023-03-26T08:57:58.694Z,99652.19
2023-03-26T09:00:41.074Z,99640.66
2023-03-26T09:03:50.889Z,99634.41
2023-03-26T09:06:51.928Z,99627.16
2023-03-26T09:09:37.404Z,99637.88
2023-03-26T09:12:43.855Z,99630.34
2023-03-26T09:15:41.506Z,99631.94
2023-03-26T09:18:46.001Z,99627.34
2023-03-26T09:21:42.359Z,99638.09
2023-03-26T09:24:33.746Z,99634.63
2023-03-26T09:27:09.601Z,99627.94
2023-03-26T09:30:02.670Z,99624.19
2023-03-26T09:32:47.784Z,99606.78
2023-03-26T09:35:17.753Z,99610.25
2023-03-26T09:38:00.914Z,99604.41
2023-03-26T09:41:13.386Z,99587.00
2023-03-26T09:43:55.674Z,99588.56
2023-03-26T09:47:01.302Z,99586.88
2023-03-26T09:49:52.793Z,99571.09
2023-03-26T09:52:46.768Z,99566.72
2023-03-26T09:55:32.396Z,99573.66
2023-03-26T09:58:17.911Z,99571.78
2023-03-26T10:01:03.151Z,99571.00
2023-03-26T10:03:54.562Z,99562.44
2023-03-26T10:06:54.219Z,99555.97
2023-03-26T10:09:42.923Z,99561.25
2023-03-26T10:12:25.336Z,99556.97
2023-03-26T10:15:05.761Z,99562.34
2023-03-26T10:18:27.459Z,99563.94
2023-03-26T10:21:28.384Z,99546.25
2023-03-26T10:24:12.869Z,99543.87
2023-03-26T10:27:09.309Z,99541.47
2023-03-26T10:29:55.556Z,99525.94
2023-03-26T10:32:44.241Z,99527.25
2023-03-26T10:35:38.851Z,99522.97
2023-03-26T10:38:25.325Z,99508.66
2023-03-26T10:41:19.535Z,99505.97
2023-03-26T10:44:15.631Z,99495.25
2023-03-26T10:47:27.554Z,99491.97
2023-03-26T10:50:07.203Z,99484.38
2023-03-26T10:53:00.781Z,99486.78
2023-03-26T10:55:31.284Z,99467.69
2023-03-26T10:58:12.925Z,99469.28
2023-03-26T11:00:51.228Z,99476.25
2023-03-26T11:03:38.088Z,99463.31
2023-03-26T11:06:27.469Z,99452.87
2023-03-26T11:09:15.835Z,99451.00
2023-03-26T11:12:25.650Z,99448.19
2023-03-26T11:15:32.591Z,99442.81
2023-03-26T11:18:19.606Z,99438.25
2023-03-26T11:21:19.794Z,99439.03
2023-03-26T11:24:18.487Z,99434.16
2023-03-26T11:26:51.761Z,99432.59
2023-03-26T11:29:34.490Z,99414.87
2023-03-26T11:32:21.140Z,99412.19
2023-03-26T11:35:10.287Z,99390.69
2023-03-26T11:37:48.309Z,99383.75
2023-03-26T11:40:35.539Z,99376.00
2023-03-26T11:43:13.095Z,99378.38
2023-03-26T11:45:52.193Z,99365.56
2023-03-26T11:48:31.689Z,99369.06
2023-03-26T11:51:30.819Z,99357.69
2023-03-26T11:54:00.979Z,99354.94
2023-03-26T11:57:06.022Z,99351.53
2023-03-26T11:59:45.211Z,99340.19
2023-03-26T12:02:31.938Z,99340.19
2023-03-26T12:05:11.498Z,99333.25
2023-03-26T12:08:05.358Z,99321.72
2023-03-26T12:10:38.555Z,99302.09
2023-03-26T12:13:30.670Z,99314.44
2023-03-26T12:16:10.751Z,99308.75
2023-03-26T12:18:40.146Z,99303.00
2023-03-26T12:21:15.546Z,99292.78
2023-03-26T12:23:57.281Z,99291.66
2023-03-26T12:26:46.733Z,99276.16
2023-03-26T12:29:16.859Z,99284.72
2023-03-26T12:32:06.843Z,99273.19
2023-03-26T12:34:43.382Z,99274.78
2023-03-26T12:37:39.991Z,99259.78
2023-03-26T12:40:31.397Z,99252.69
2023-03-26T12:44:49.858Z,99248.13
2023-03-26T12:47:45.972Z,99234.97
2023-03-26T12:48:52.103Z,99232.78
2023-03-26T12:51:40.548Z,99228.22
2023-03-26T12:54:44.708Z,99216.87
2023-03-26T12:57:22.303Z,99223.34
2023-03-26T12:59:59.605Z,99202.94
2023-03-26T13:02:51.025Z,99190.81
2023-03-26T13:05:42.401Z,99187.31
2023-03-26T13:08:27.784Z,99181.62
2023-03-26T13:11:20.439Z,99178.47
2023-03-26T13:14:26.183Z,99176.09
2023-03-26T13:17:33.880Z,99177.87
2023-03-26T13:20:09.555Z,99164.91
2023-03-26T13:23:05.377Z,99156.53
2023-03-26T13:26:01.432Z,99158.94
2023-03-26T13:28:54.096Z,99143.78
2023-03-26T13:31:40.227Z,99156.09
2023-03-26T13:34:51.804Z,99146.94
2023-03-26T13:37:19.210Z,99145.84
2023-03-26T13:40:16.143Z,99132.59
2023-03-26T13:43:01.696Z,99131.19
2023-03-26T13:46:09.400Z,99128.19
2023-03-26T13:48:55.212Z,99122.00
2023-03-26T13:51:58.312Z,99120.44
2023-03-26T13:55:16.389Z,99119.31
2023-03-26T13:58:01.747Z,99106.72
2023-03-26T14:00:48.982Z,99109.41
2023-03-26T14:03:34.925Z,99109.09
2023-03-26T14:06:13.171Z,99103.22
2023-03-26T14:08:55.501Z,99090.88
2023-03-26T14:11:42.276Z,99081.72
2023-03-26T14:14:51.755Z,99079.03
2023-03-26T14:17:43.311Z,99068.81
2023-03-26T14:20:28.802Z,99070.87
2023-03-26T14:23:14.284Z,99064.88
2023-03-26T14:26:10.670Z,99051.47
2023-03-26T14:29:08.624Z,99042.75
2023-03-26T14:31:52.453Z,99043.25
2023-03-26T14:34:44.129Z,99029.81
2023-03-26T14:37:28.945Z,99029.81
2023-03-26T14:40:11.251Z,99020.63
2023-03-26T14:43:00.989Z,99023.00
2023-03-26T14:45:56.299Z,99015.25
2023-03-26T14:48:36.605Z,99011.47
2023-03-26T14:51:24.842Z,99011.47
2023-03-26T14:54:04.024Z,99006.88
2023-03-26T14:57:07.789Z,99013.06
2023-03-26T14:59:53.253Z,99007.03
2023-03-26T15:02:56.355Z,99002.50
2023-03-26T15:05:47.601Z,98984.94
2023-03-26T15:08:20.791Z,98984.12
2023-03-26T15:11:25.000Z,98991.09
2023-03-26T15:14:22.263Z,98982.72
2023-03-26T15:17:26.665Z,98983.19
2023-03-26T15:20:21.067Z,98967.56
2023-03-26T15:23:34.702Z,98968.00
2023-03-26T15:26:50.510Z,98957.75
2023-03-26T15:29:41.591Z,98951.75
2023-03-26T15:32:56.658Z,98949.69
2023-03-26T15:36:00.497Z,98940.06
2023-03-26T15:38:33.824Z,98938.44
2023-03-26T15:41:18.779Z,98937.38
2023-03-26T15:44:24.015Z,98934.19
2023-03-26T15:46:59.758Z,98929.94
2023-03-26T15:49:45.243Z,98929.94
2023-03-26T15:52:54.974Z,98929.94
2023-03-26T15:55:30.371Z,98924.06
2023-03-26T15:58:15.625Z,98924.56
2023-03-26T16:00:59.785Z,98919.19
2023-03-26T16:03:40.202Z,98908.91
2023-03-26T16:06:50.204Z,98907.81
2023-03-26T16:09:23.890Z,98908.75
2023-03-26T16:12:19.114Z,98898.00
2023-03-26T16:15:10.507Z,98888.81
2023-03-26T16:18:10.810Z,98893.09
2023-03-26T16:21:31.812Z,98891.66
2023-03-26T16:24:03.764Z,98888.19
2023-03-26T16:26:51.924Z,98881.22
2023-03-26T16:29:30.840Z,98874.28
2023-03-26T16:32:12.879Z,98882.34
2023-03-26T16:34:59.533Z,98895.31
2023-03-26T16:37:39.585Z,98891.50
2023-03-26T16:40:32.360Z,98885.03
2023-03-26T16:43:17.834Z,98886.59
2023-03-26T16:46:11.970Z,98886.59
2023-03-26T16:48:51.226Z,98888.81
2023-03-26T16:51:58.903Z,98895.78
2023-03-26T16:54:45.978Z,98898.31
2023-03-26T16:57:23.186Z,98899.25
2023-03-26T17:00:08.294Z,98899.91
2023-03-26T17:03:02.957Z,98894.53
2023-03-26T17:06:18.167Z,98892.62
2023-03-26T17:09:17.639Z,98895.31
2023-03-26T17:12:14.715Z,98898.78
2023-03-26T17:15:12.284Z,98892.94
2023-03-26T17:18:05.827Z,98889.16
2023-03-26T17:21:26.009Z,98892.94
2023-03-26T17:24:18.923Z,98891.38
2023-03-26T17:27:05.381Z,98892.94
2023-03-26T17:30:01.509Z,98886.78
2023-03-26T17:32:58.921Z,98879.84
2023-03-26T17:35:51.492Z,98879.84
2023-03-26T17:38:27.633Z,98890.44
2023-03-26T17:40:57.421Z,98896.09
2023-03-26T17:43:45.663Z,98897.72
2023-03-26T17:46:39.111Z,98903.87
2023-03-26T17:49:19.400Z,98896.87
2023-03-26T17:52:08.882Z,98904.16
2023-03-26T17:54:48.992Z,98908.28
2023-03-26T17:57:44.411Z,98907.03
2023-03-26T18:00:42.718Z,98915.41
2023-03-26T18:03:42.411Z,98918.41
2023-03-26T18:06:38.260Z,98917.59
2023-03-26T18:09:33.067Z,98917.59
2023-03-26T18:12:34.553Z,98920.78
2023-03-26T18:15:14.001Z,98924.56
2023-03-26T18:17:47.313Z,98919.97
2023-03-26T18:20:26.737Z,98919.97
2023-03-26T18:22:54.368Z,98919.97
2023-03-26T18:25:34.773Z,98919.19
2023-03-26T18:28:06.459Z,98922.97
2023-03-26T18:30:46.740Z,98920.78
2023-03-26T18:33:17.886Z,98919.84
2023-03-26T18:35:53.813Z,98919.19
2023-03-26T18:38:36.093Z,98917.28
2023-03-26T18:41:22.486Z,98906.06
2023-03-26T18:44:01.302Z,98905.28
2023-03-26T18:46:39.555Z,98912.84
2023-03-26T18:49:11.032Z,98915.09
2023-03-26T18:51:54.044Z,98913.50
2023-03-26T18:54:31.489Z,98909.72
2023-03-26T18:57:15.817Z,98918.41
2023-03-26T18:59:53.400Z,98914.75
2023-03-26T19:02:28.437Z,98913.16
2023-03-26T19:04:56.431Z,98907.78
2023-03-26T19:07:29.247Z,98907.00
2023-03-26T19:09:57.787Z,98899.25
2023-03-26T19:12:34.897Z,98890.06
2023-03-26T19:15:17.236Z,98886.94
2023-03-26T19:17:52.961Z,98888.03
2023-03-26T19:20:27.345Z,98880.00
2023-03-26T19:22:56.174Z,98877.59
2023-03-26T19:25:29.263Z,98922.78
2023-03-26T19:27:56.061Z,98925.78
2023-03-26T19:30:35.870Z,98919.78
2023-03-26T19:33:25.262Z,98913.47
2023-03-26T19:36:04.422Z,98906.53
2023-03-26T19:38:55.153Z,98899.56
2023-03-26T19:41:38.317Z,98893.38
2023-03-26T19:44:27.659Z,98892.59
2023-03-26T19:47:11.462Z,98877.59
2023-03-26T19:50:03.091Z,98879.50
2023-03-26T19:52:44.210Z,98881.41
2023-03-26T19:55:26.946Z,98877.16
2023-03-26T19:57:59.092Z,98876.34
2023-03-26T20:00:32.963Z,98871.78
2023-03-26T20:03:03.638Z,98870.19
2023-03-26T20:05:39.125Z,98870.97
2023-03-26T20:08:16.602Z,98863.72
2023-03-26T20:10:43.940Z,98857.87
2023-03-26T20:13:17.960Z,98848.69
2023-03-26T20:16:05.771Z,98852.50
2023-03-26T20:18:45.131Z,98842.53
2023-03-26T20:21:16.868Z,98834.81
2023-03-26T20:23:51.690Z,98833.22
2023-03-26T20:26:23.096Z,98819.34
2023-03-26T20:28:58.327Z,98802.44
2023-03-26T20:31:30.575Z,98785.53
2023-03-26T20:33:57.604Z,98785.53
2023-03-26T20:36:34.194Z,98777.00
2023-03-26T20:39:10.825Z,98780.81
2023-03-26T20:41:44.565Z,98786.16
2023-03-26T20:44:17.552Z,98784.59
2023-03-26T20:46:48.548Z,98776.56
2023-03-26T20:49:22.386Z,98779.22
2023-03-26T20:51:56.153Z,98758.37
2023-03-26T20:54:39.255Z,98760.59
2023-03-26T20:57:15.280Z,98759.50
2023-03-26T20:59:48.668Z,98755.22
2023-03-26T21:02:21.711Z,98750.97
2023-03-26T21:04:50.040Z,98749.41
2023-03-26T21:07:26.295Z,98754.44
2023-03-26T21:09:56.362Z,98743.53
2023-03-26T21:12:33.508Z,98747.34
2023-03-26T21:15:22.319Z,98740.41
2023-03-26T21:17:51.695Z,98739.62
2023-03-26T21:20:30.202Z,98735.03
2023-03-26T21:23:13.751Z,98747.97
2023-03-26T21:26:24.834Z,98758.69
2023-03-26T21:28:53.760Z,98749.41
2023-03-26T21:31:23.037Z,98750.97
2023-03-26T21:33:54.541Z,98741.66
2023-03-26T21:36:27.764Z,98737.41
2023-03-26T21:39:01.146Z,98746.22
2023-03-26T21:42:04.789Z,98743.87
2023-03-26T21:44:37.165Z,98736.91
2023-03-26T21:47:10.155Z,98735.03
2023-03-26T21:49:37.921Z,98724.16
2023-03-26T21:52:06.075Z,98720.69
2023-03-26T21:54:36.683Z,98716.88
2023-03-26T21:57:21.742Z,98707.56
2023-03-26T22:00:06.518Z,98702.19
2023-03-26T22:02:57.324Z,98714.03
2023-03-26T22:06:02.111Z,98715.94
2023-03-26T22:08:41.842Z,98722.41
2023-03-26T22:11:15.683Z,98724.28
2023-03-26T22:13:42.694Z,98730.78
2023-03-26T22:16:10.027Z,98720.03
2023-03-26T22:18:39.957Z,98712.00
2023-03-26T22:21:12.921Z,98712.63
2023-03-26T22:23:45.137Z,98704.91
2023-03-26T22:26:18.747Z,98698.13
2023-03-26T22:28:49.507Z,98688.78
2023-03-26T22:31:20.619Z,98677.28
2023-03-26T22:33:48.313Z,98674.59
2023-03-26T22:36:22.824Z,98660.41
2023-03-26T22:38:53.131Z,98658.00
2023-03-26T22:41:22.056Z,98651.87
2023-03-26T22:43:58.167Z,98660.25
2023-03-26T22:46:30.482Z,98658.66
2023-03-26T22:49:03.671Z,98657.06
2023-03-26T22:51:33.581Z,98662.44
2023-03-26T22:54:09.797Z,98663.22
2023-03-26T22:56:45.170Z,98650.13
2023-03-26T22:59:20.579Z,98640.19
2023-03-26T23:01:54.728Z,98646.34
2023-03-26T23:04:31.090Z,98653.94
2023-03-26T23:07:04.105Z,98657.69
2023-03-26T23:09:40.675Z,98656.62
2023-03-26T23:12:10.565Z,98659.59
2023-03-26T23:14:47.255Z,98656.91
2023-03-26T23:17:17.596Z,98665.28
2023-03-26T23:19:46.047Z,98658.34
2023-03-26T23:22:19.086Z,98656.12
2023-03-26T23:24:54.543Z,98659.13
2023-03-26T23:27:24.527Z,98655.03
2023-03-26T23:29:57.895Z,98647.62
2023-03-26T23:32:29.512Z,98658.66
2023-03-26T23:34:59.413Z,98649.81
2023-03-26T23:37:36.702Z,98650.16
2023-03-26T23:40:07.350Z,98646.69
2023-03-26T23:42:39.449Z,98641.31
2023-03-26T23:45:07.144Z,98642.41
2023-03-26T23:47:34.325Z,98637.53
2023-03-26T23:50:02.602Z,98631.69
2023-03-26T23:52:39.134Z,98621.28
2023-03-26T23:55:09.236Z,98620.50
2023-03-26T23:57:45.351Z,98614.34
